Time;durP1;ratioP1;P1;durP2;ratioP2;P2;SDS_P1;SDS_P2;PMS_P1;PMS_P2;Temp;Humidity;BMP_temperature;BMP_pressure;BME280_temperature;BME280_humidity;BME280_pressure;Samples;Min_cycle;Max_cycle;Signal;HPM_P1;HPM_P2
2021/12/24 00:01:18;;;;;;;15.60;8.90;;;22.60;50.90;;;;;;213953;1312;22597;-53
2021/12/24 00:06:22;;;;;;;18.50;9.50;;;22.70;50.30;;;;;;214300;1313;24439;-56
2021/12/24 00:11:26;;;;;;;15.10;8.50;;;22.70;50.40;;;;;;214137;1314;26580;-55
2021/12/24 00:16:40;;;;;;;13.80;8.50;;;22.80;50.70;;;;;;214041;1312;23385;-54
2021/12/24 00:23:09;;;;;;;15.40;9.00;;;22.70;50.70;;;;;;214311;1316;24282;-52
2021/12/24 00:38:08;;;;;;;15.90;8.30;;;22.70;51.00;;;;;;214204;1317;22574;-56
2021/12/24 00:43:14;;;;;;;13.10;7.80;;;22.80;51.00;;;;;;213702;1317;24328;-52
2021/12/24 00:48:20;;;;;;;16.60;7.80;;;22.70;50.90;;;;;;214355;1317;25352;-52
2021/12/24 00:58:43;;;;;;;12.90;8.40;;;22.80;50.70;;;;;;213922;1312;22660;-55
2021/12/24 01:03:47;;;;;;;11.90;7.90;;;22.70;50.70;;;;;;214035;1309;158739;-54
2021/12/24 01:08:50;;;;;;;11.70;8.00;;;22.80;50.60;;;;;;214157;1316;25259;-54
2021/12/24 01:13:55;;;;;;;11.10;7.80;;;22.80;50.40;;;;;;213910;1318;25314;-54
2021/12/24 01:19:15;;;;;;;11.40;7.20;;;22.80;50.30;;;;;;214026;1316;22733;-55
2021/12/24 01:24:24;;;;;;;11.70;7.10;;;22.90;50.10;;;;;;214323;1316;24254;-52
2021/12/24 01:45:21;;;;;;;9.50;6.50;;;22.80;50.00;;;;;;213768;1316;25624;-55
2021/12/24 01:50:28;;;;;;;9.80;7.10;;;22.80;49.90;;;;;;214335;1316;24506;-55
2021/12/24 01:55:33;;;;;;;10.90;6.70;;;22.80;49.70;;;;;;214248;1317;24304;-56
2021/12/24 02:00:44;;;;;;;9.80;6.90;;;22.90;50.10;;;;;;213777;1318;25347;-53
2021/12/24 02:05:48;;;;;;;9.80;6.30;;;22.80;49.80;;;;;;214327;1317;22605;-55
2021/12/24 02:10:51;;;;;;;10.40;6.80;;;22.80;49.60;;;;;;214012;1317;22698;-53
2021/12/24 02:31:46;;;;;;;9.00;6.40;;;22.90;49.30;;;;;;214041;1317;22555;-53
2021/12/24 02:36:50;;;;;;;9.50;6.60;;;22.90;49.20;;;;;;214338;1317;25329;-55
2021/12/24 02:41:55;;;;;;;8.80;6.40;;;23.00;49.10;;;;;;213963;1317;22597;-56
2021/12/24 02:57:26;;;;;;;9.20;6.10;;;22.90;49.10;;;;;;213905;1317;22584;-54
2021/12/24 03:02:30;;;;;;;8.70;5.80;;;22.90;49.30;;;;;;214457;1317;22567;-53
2021/12/24 03:07:35;;;;;;;9.00;5.60;;;22.80;49.20;;;;;;214002;1317;24297;-51
2021/12/24 03:12:40;;;;;;;9.20;5.70;;;22.90;49.20;;;;;;214062;1317;22694;-54
2021/12/24 03:17:49;;;;;;;8.40;5.80;;;22.80;49.10;;;;;;213981;1316;24332;-55
2021/12/24 03:23:21;;;;;;;7.80;5.70;;;22.90;49.00;;;;;;214262;1317;26547;-55
2021/12/24 03:28:25;;;;;;;7.50;5.30;;;22.80;49.30;;;;;;214184;1316;25256;-54
2021/12/24 03:33:28;;;;;;;8.00;5.30;;;22.90;49.10;;;;;;213875;1318;22554;-53
2021/12/24 03:38:33;;;;;;;7.30;5.00;;;22.90;49.50;;;;;;213961;1315;23036;-52
2021/12/24 03:43:36;;;;;;;7.30;5.10;;;22.90;48.90;;;;;;214581;1315;22593;-54
2021/12/24 03:49:01;;;;;;;9.80;5.50;;;22.90;48.90;;;;;;213901;1317;22581;-56
2021/12/24 03:59:27;;;;;;;8.00;5.80;;;22.90;48.90;;;;;;214328;1316;24356;-57
2021/12/24 04:04:50;;;;;;;7.90;5.10;;;22.90;48.90;;;;;;214269;1315;22558;-55
2021/12/24 04:10:39;;;;;;;7.90;5.30;;;22.90;48.80;;;;;;214273;1315;22560;-52
2021/12/24 04:15:54;;;;;;;8.60;5.00;;;22.90;48.80;;;;;;214106;1315;22770;-55
2021/12/24 04:26:24;;;;;;;10.20;5.90;;;22.80;48.90;;;;;;214439;1316;22580;-55
2021/12/24 04:32:20;;;;;;;6.90;5.00;;;22.90;48.80;;;;;;214366;1315;22578;-53
2021/12/24 05:04:32;;;;;;;6.20;4.20;;;22.90;49.00;;;;;;214384;1316;22597;-54
2021/12/24 05:09:39;;;;;;;6.70;4.50;;;22.90;48.60;;;;;;213956;1316;22586;-54
2021/12/24 05:14:42;;;;;;;6.00;4.50;;;22.90;48.60;;;;;;214255;1317;24358;-55
2021/12/24 05:25:26;;;;;;;6.00;4.20;;;22.90;48.70;;;;;;214024;1316;22849;-55
2021/12/24 05:30:29;;;;;;;6.40;4.40;;;22.80;48.80;;;;;;214477;1316;23979;-56
2021/12/24 05:35:33;;;;;;;6.00;4.30;;;22.90;48.70;;;;;;214268;1316;22554;-53
2021/12/24 05:40:37;;;;;;;5.00;3.80;;;22.80;48.80;;;;;;214339;1316;22580;-56
2021/12/24 05:45:41;;;;;;;4.80;3.90;;;22.80;48.70;;;;;;214395;1316;24277;-54
2021/12/24 05:50:57;;;;;;;6.20;4.30;;;22.90;48.70;;;;;;214363;1316;24276;-56
2021/12/24 05:56:19;;;;;;;4.90;3.80;;;22.90;48.50;;;;;;214326;1315;25611;-51
2021/12/24 06:01:27;;;;;;;5.30;4.00;;;22.90;48.50;;;;;;214217;1316;22567;-54
2021/12/24 06:06:30;;;;;;;5.00;3.50;;;22.90;48.50;;;;;;214271;1316;25380;-53
2021/12/24 06:11:34;;;;;;;5.20;3.50;;;22.80;48.50;;;;;;214386;1315;24273;-54
2021/12/24 06:16:47;;;;;;;6.20;3.80;;;22.90;48.40;;;;;;214293;1316;22649;-54
2021/12/24 06:21:53;;;;;;;4.70;3.40;;;22.90;48.40;;;;;;214374;1316;22568;-54
2021/12/24 06:26:57;;;;;;;5.60;4.00;;;22.90;48.50;;;;;;214375;1316;22583;-54
2021/12/24 06:32:00;;;;;;;5.10;3.60;;;22.80;48.50;;;;;;214455;1316;22565;-52
2021/12/24 06:37:04;;;;;;;5.40;4.10;;;22.80;48.40;;;;;;214422;1317;22590;-54
2021/12/24 06:42:08;;;;;;;5.30;3.70;;;22.90;48.50;;;;;;214267;1314;22571;-54
2021/12/24 06:47:14;;;;;;;4.60;3.70;;;22.80;48.60;;;;;;214325;1313;25588;-53
2021/12/24 06:52:18;;;;;;;4.90;3.30;;;22.90;48.60;;;;;;214372;1313;25434;-55
2021/12/24 06:57:27;;;;;;;5.20;3.90;;;22.90;48.60;;;;;;214069;1313;25470;-55
2021/12/24 07:02:35;;;;;;;5.80;4.10;;;22.90;48.90;;;;;;214244;1311;22639;-54
2021/12/24 07:07:40;;;;;;;6.30;3.50;;;23.00;48.30;;;;;;214198;1311;22718;-54
2021/12/24 07:12:43;;;;;;;6.00;3.60;;;22.90;48.20;;;;;;214363;1316;22586;-55
2021/12/24 07:17:47;;;;;;;7.80;3.60;;;22.90;48.30;;;;;;213941;1313;22575;-53
2021/12/24 07:22:51;;;;;;;7.70;3.90;;;22.90;48.40;;;;;;214354;1316;22576;-58
2021/12/24 07:27:56;;;;;;;5.20;3.20;;;22.90;48.50;;;;;;214402;1318;22586;-57
2021/12/24 07:33:00;;;;;;;4.50;2.90;;;22.90;48.30;;;;;;214388;1315;22555;-54
2021/12/24 07:38:04;;;;;;;4.90;3.50;;;22.90;48.40;;;;;;214443;1315;22648;-53
2021/12/24 07:43:07;;;;;;;4.60;3.30;;;22.80;48.20;;;;;;214126;1316;24354;-53
2021/12/24 07:48:15;;;;;;;4.60;3.30;;;22.80;48.40;;;;;;214390;1314;25406;-57
2021/12/24 07:53:21;;;;;;;4.30;3.30;;;22.80;48.20;;;;;;214448;1309;22567;-54
2021/12/24 07:58:25;;;;;;;4.40;3.40;;;22.80;48.20;;;;;;214370;1316;22840;-51
2021/12/24 08:03:32;;;;;;;4.10;2.90;;;22.90;48.70;;;;;;214333;1312;22574;-55
2021/12/24 08:08:40;;;;;;;5.00;3.60;;;22.90;48.10;;;;;;214363;1316;24273;-54
2021/12/24 08:13:43;;;;;;;4.50;3.40;;;22.90;48.00;;;;;;214325;1316;22776;-56
2021/12/24 08:18:50;;;;;;;5.10;3.50;;;22.90;48.00;;;;;;214386;1315;24440;-52
2021/12/24 08:23:55;;;;;;;4.80;3.40;;;22.80;48.00;;;;;;214530;1315;25500;-56
2021/12/24 08:28:59;;;;;;;4.60;3.30;;;22.90;48.20;;;;;;214379;1316;24332;-56
2021/12/24 08:34:05;;;;;;;5.70;3.00;;;22.90;48.50;;;;;;214419;1315;22761;-55
2021/12/24 08:39:09;;;;;;;5.20;3.50;;;22.80;48.20;;;;;;214413;1316;22600;-54
2021/12/24 08:44:13;;;;;;;4.70;3.30;;;22.80;48.40;;;;;;214385;1316;24247;-54
2021/12/24 08:49:20;;;;;;;6.10;3.30;;;22.80;48.50;;;;;;214523;1315;22571;-53
2021/12/24 08:54:24;;;;;;;4.40;3.00;;;22.80;48.80;;;;;;214445;1316;22864;-55
2021/12/24 08:59:28;;;;;;;4.40;3.20;;;22.80;48.30;;;;;;214481;1309;22572;-53
2021/12/24 09:04:32;;;;;;;4.50;3.10;;;22.80;48.30;;;;;;214380;1314;298509;-54
2021/12/24 09:09:36;;;;;;;4.20;3.20;;;22.80;48.40;;;;;;214265;1316;24432;-55
2021/12/24 09:14:39;;;;;;;4.50;3.60;;;22.80;48.30;;;;;;214293;1309;25381;-55
2021/12/24 09:19:49;;;;;;;6.20;3.40;;;22.80;48.30;;;;;;214263;1309;24268;-56
2021/12/24 09:24:54;;;;;;;4.30;3.10;;;22.90;48.50;;;;;;214089;1310;22667;-56
2021/12/24 09:30:05;;;;;;;4.30;3.40;;;22.90;48.80;;;;;;214407;1309;22785;-51
2021/12/24 09:35:10;;;;;;;6.70;3.20;;;22.80;48.90;;;;;;214396;1316;25606;-52
2021/12/24 09:40:16;;;;;;;8.20;2.90;;;22.90;49.00;;;;;;214722;1316;22558;-52
2021/12/24 09:45:23;;;;;;;4.10;2.90;;;22.90;49.30;;;;;;214547;1315;22613;-55
2021/12/24 09:50:28;;;;;;;3.80;2.80;;;22.80;48.90;;;;;;214341;1315;23023;-52
2021/12/24 09:55:37;;;;;;;4.30;2.90;;;22.90;48.70;;;;;;214423;1315;25467;-54
2021/12/24 10:00:41;;;;;;;5.40;3.30;;;22.80;48.60;;;;;;214332;1313;22623;-54
2021/12/24 10:05:46;;;;;;;5.70;3.10;;;22.80;48.80;;;;;;214381;1309;22594;-55
2021/12/24 10:11:04;;;;;;;6.70;3.00;;;22.90;48.40;;;;;;214441;1309;22737;-52
2021/12/24 10:16:13;;;;;;;8.70;3.10;;;22.90;48.30;;;;;;214440;1309;22597;-54
2021/12/24 10:21:26;;;;;;;6.10;3.20;;;22.90;48.30;;;;;;214377;1310;22615;-53
2021/12/24 10:26:33;;;;;;;7.50;3.60;;;23.00;48.20;;;;;;214260;1309;25810;-52
2021/12/24 10:31:39;;;;;;;8.10;3.60;;;23.10;48.30;;;;;;214156;1310;24473;-53
2021/12/24 10:36:49;;;;;;;7.50;2.60;;;23.10;48.30;;;;;;214187;1312;22580;-53
2021/12/24 10:41:55;;;;;;;5.30;3.30;;;22.90;48.30;;;;;;214632;1315;22570;-54
2021/12/24 10:47:31;;;;;;;6.50;4.10;;;22.80;48.40;;;;;;214458;1315;22587;-55
2021/12/24 10:53:13;;;;;;;8.00;3.70;;;22.80;48.20;;;;;;213940;1312;22596;-56
2021/12/24 10:58:23;;;;;;;20.40;7.40;;;22.90;49.60;;;;;;214259;1318;22564;-55
2021/12/24 11:03:32;;;;;;;61.80;20.60;;;22.90;50.00;;;;;;214431;1318;22572;-57
2021/12/24 11:08:37;;;;;;;73.90;26.90;;;23.00;52.10;;;;;;214304;1309;25595;-54
2021/12/24 11:13:43;;;;;;;100.50;31.90;;;22.90;52.80;;;;;;214519;1312;22789;-56
2021/12/24 11:19:01;;;;;;;84.70;27.70;;;23.00;53.60;;;;;;214320;1314;22596;-56
2021/12/24 11:24:05;;;;;;;72.70;25.60;;;23.00;53.30;;;;;;214506;1309;25657;-54
2021/12/24 11:29:08;;;;;;;61.20;21.80;;;23.00;52.70;;;;;;214488;1315;24337;-54
2021/12/24 11:34:13;;;;;;;59.20;21.10;;;23.10;52.50;;;;;;214518;1316;22574;-55
2021/12/24 11:39:17;;;;;;;58.10;21.20;;;23.20;52.00;;;;;;214443;1316;22593;-54
2021/12/24 11:44:20;;;;;;;53.50;19.00;;;23.20;51.80;;;;;;214364;1309;22805;-58
2021/12/24 11:49:24;;;;;;;46.70;17.30;;;23.10;51.70;;;;;;214373;1309;22561;-54
2021/12/24 11:54:27;;;;;;;50.40;17.30;;;23.10;51.50;;;;;;214094;1309;24403;-54
2021/12/24 11:59:41;;;;;;;48.70;17.80;;;23.00;51.30;;;;;;214503;1314;22713;-53
2021/12/24 12:04:44;;;;;;;39.10;15.40;;;23.10;51.50;;;;;;213988;1310;24351;-50
2021/12/24 12:09:48;;;;;;;39.40;14.10;;;23.00;51.30;;;;;;213929;1309;24330;-54
2021/12/24 12:15:26;;;;;;;39.40;13.90;;;22.90;51.50;;;;;;213870;1309;22562;-53
2021/12/24 12:20:48;;;;;;;37.70;14.10;;;23.00;51.40;;;;;;214364;1312;25456;-51
2021/12/24 12:25:51;;;;;;;;;;;22.90;51.20;;;;;;214242;1312;22602;-54
2021/12/24 12:31:00;;;;;;;29.40;12.30;;;23.00;51.00;;;;;;214153;1309;24870;-54
2021/12/24 12:36:06;;;;;;;32.90;11.50;;;23.00;50.80;;;;;;214081;1310;26536;-52
2021/12/24 12:41:36;;;;;;;25.10;11.00;;;23.10;50.00;;;;;;214065;1309;23087;-53
2021/12/24 12:46:42;;;;;;;;;;;23.10;50.50;;;;;;214276;1313;24245;-52
2021/12/24 12:52:03;;;;;;;23.80;9.80;;;23.00;50.50;;;;;;214116;1309;24407;-56
2021/12/24 12:57:25;;;;;;;25.30;10.30;;;23.10;50.30;;;;;;214032;1309;22602;-51
2021/12/24 13:02:57;;;;;;;20.90;8.30;;;23.00;50.30;;;;;;213628;1313;22586;-55
2021/12/24 13:08:13;;;;;;;17.90;9.20;;;23.10;50.20;;;;;;213916;1309;25997;-54
2021/12/24 13:13:27;;;;;;;20.50;8.30;;;23.10;50.00;;;;;;214140;1315;24248;-54
2021/12/24 13:18:35;;;;;;;21.00;8.20;;;23.00;50.20;;;;;;214076;1309;22564;-53
2021/12/24 13:23:47;;;;;;;16.50;8.50;;;23.00;50.10;;;;;;214118;1312;25348;-52
2021/12/24 13:29:02;;;;;;;18.60;7.90;;;22.90;50.80;;;;;;213635;1309;25341;-52
2021/12/24 13:34:13;;;;;;;15.60;7.80;;;22.80;51.10;;;;;;214131;1313;22596;-54
2021/12/24 13:39:31;;;;;;;16.40;7.50;;;22.80;51.00;;;;;;213503;1312;24264;-53
2021/12/24 13:44:40;;;;;;;44.80;15.40;;;22.70;51.10;;;;;;214145;1313;24301;-54
2021/12/24 13:55:53;;;;;;;29.40;12.30;;;22.60;51.90;;;;;;213758;1312;25380;-56
2021/12/24 14:01:00;;;;;;;42.20;18.20;;;22.50;52.30;;;;;;214068;1312;24367;-53
2021/12/24 14:06:05;;;;;;;33.30;15.10;;;22.50;52.10;;;;;;213886;1312;25538;-54
2021/12/24 14:11:13;;;;;;;33.00;15.10;;;22.50;52.40;;;;;;216432;1314;22975;-51
2021/12/24 14:26:47;;;;;;;28.70;11.40;;;23.00;50.30;;;;;;214293;1315;23019;-54
2021/12/24 14:31:53;;;;;;;24.30;11.00;;;22.80;50.20;;;;;;214039;1309;24406;-53
2021/12/24 14:37:32;;;;;;;28.00;10.90;;;22.80;50.10;;;;;;214064;1312;22728;-51
2021/12/24 14:42:35;;;;;;;54.50;24.50;;;22.70;50.50;;;;;;213790;1309;25249;-52
2021/12/24 14:48:01;;;;;;;682.10;180.10;;;22.40;50.80;;;;;;213811;1316;22582;-54
2021/12/24 14:53:18;;;;;;;1778.50;337.50;;;22.40;50.50;;;;;;214214;1309;25134;-50
2021/12/24 14:58:34;;;;;;;1108.80;316.00;;;22.30;50.40;;;;;;214284;1314;22607;-52
2021/12/24 15:03:43;;;;;;;216.30;59.00;;;21.70;44.60;;;;;;214261;1309;22571;-57
2021/12/24 15:08:48;;;;;;;205.40;111.30;;;19.10;46.40;;;;;;214416;1309;22593;-51
2021/12/24 15:14:00;;;;;;;170.80;112.60;;;18.80;48.00;;;;;;214342;1315;22580;-51
2021/12/24 15:19:06;;;;;;;253.40;195.20;;;19.40;47.30;;;;;;214368;1315;25658;-54
2021/12/24 15:24:12;;;;;;;549.10;485.00;;;20.70;45.60;;;;;;214375;1316;22585;-55
2021/12/24 15:29:17;;;;;;;356.00;309.40;;;21.40;45.30;;;;;;214428;1309;24273;-51
2021/12/24 15:34:20;;;;;;;253.30;225.50;;;21.30;44.90;;;;;;213947;1309;24442;-55
2021/12/24 15:39:39;;;;;;;168.30;149.00;;;21.10;44.80;;;;;;214180;1310;24431;-53
2021/12/24 15:45:06;;;;;;;119.50;106.10;;;21.10;45.20;;;;;;214192;1309;24336;-55
2021/12/24 15:50:10;;;;;;;71.20;64.20;;;21.20;45.10;;;;;;214048;1314;22627;-53
2021/12/24 15:55:16;;;;;;;41.90;37.30;;;20.90;44.40;;;;;;214074;1309;22607;-55
2021/12/24 16:00:20;;;;;;;32.90;29.50;;;20.60;43.90;;;;;;214156;1309;25547;-52
2021/12/24 16:05:26;;;;;;;26.50;24.00;;;20.60;44.10;;;;;;214135;1309;22567;-54
2021/12/24 16:10:30;;;;;;;20.00;18.10;;;20.60;43.70;;;;;;214180;1309;24503;-53
2021/12/24 16:15:40;;;;;;;17.50;15.70;;;20.60;43.40;;;;;;214429;1309;24274;-51
2021/12/24 16:20:45;;;;;;;22.40;14.70;;;20.80;43.50;;;;;;214471;1315;22544;-54
2021/12/24 16:25:49;;;;;;;24.30;16.20;;;21.40;44.10;;;;;;214420;1316;25380;-52
2021/12/24 16:30:52;;;;;;;20.60;16.30;;;21.60;44.50;;;;;;214394;1315;25072;-51
2021/12/24 16:35:56;;;;;;;16.20;12.80;;;22.00;44.40;;;;;;214178;1309;22613;-51
2021/12/24 16:40:59;;;;;;;16.30;10.40;;;22.30;44.10;;;;;;214279;1309;22694;-54
2021/12/24 16:46:04;;;;;;;9.50;7.90;;;22.20;45.00;;;;;;214253;1309;22571;-53
2021/12/24 16:51:08;;;;;;;12.10;6.70;;;22.20;44.50;;;;;;214375;1312;22593;-54
2021/12/24 16:56:15;;;;;;;7.10;5.40;;;22.40;44.10;;;;;;214111;1314;23068;-54
2021/12/24 17:01:18;;;;;;;6.00;4.60;;;22.30;44.00;;;;;;214001;1315;25252;-55
2021/12/24 17:06:22;;;;;;;5.60;4.10;;;22.40;44.00;;;;;;213963;1315;464793;-52
2021/12/24 17:11:27;;;;;;;6.60;3.80;;;22.40;43.60;;;;;;214076;1314;24277;-54
2021/12/24 17:16:31;;;;;;;4.70;3.10;;;22.50;43.50;;;;;;214532;1314;23977;-51
2021/12/24 17:21:38;;;;;;;4.90;3.00;;;22.40;43.30;;;;;;214343;1315;22571;-55
2021/12/24 17:26:42;;;;;;;5.00;2.60;;;22.50;43.40;;;;;;214393;1315;22590;-56
2021/12/24 17:31:46;;;;;;;4.40;2.90;;;22.50;43.30;;;;;;214509;1315;22590;-56
2021/12/24 17:36:51;;;;;;;3.70;2.20;;;22.50;43.60;;;;;;214416;1314;22654;-56
2021/12/24 17:41:55;;;;;;;3.80;1.90;;;22.50;42.80;;;;;;214539;1315;22570;-52
2021/12/24 17:47:00;;;;;;;2.80;1.60;;;22.50;42.70;;;;;;214417;1313;22574;-54
2021/12/24 17:52:05;;;;;;;2.90;1.70;;;22.50;42.50;;;;;;214663;1315;22584;-51
2021/12/24 17:57:09;;;;;;;2.70;1.60;;;22.60;42.40;;;;;;214503;1315;22637;-56
2021/12/24 18:02:13;;;;;;;2.30;1.40;;;22.60;42.30;;;;;;214374;1315;24338;-53
2021/12/24 18:07:16;;;;;;;2.40;1.40;;;22.60;42.00;;;;;;214354;1315;22632;-50
2021/12/24 18:12:20;;;;;;;2.30;1.20;;;22.70;42.00;;;;;;214479;1315;22760;-55
2021/12/24 18:17:24;;;;;;;2.50;1.20;;;22.60;41.80;;;;;;214483;1315;23652;-55
2021/12/24 18:22:28;;;;;;;2.00;1.10;;;22.60;41.70;;;;;;214425;1315;24271;-56
2021/12/24 18:27:36;;;;;;;1.80;1.00;;;22.60;41.70;;;;;;214403;1315;23926;-55
2021/12/24 18:32:41;;;;;;;2.00;1.10;;;22.60;41.60;;;;;;214478;1316;25606;-55
2021/12/24 18:42:51;;;;;;;2.20;1.20;;;22.60;41.40;;;;;;214462;1315;23129;-55
2021/12/24 18:47:55;;;;;;;2.40;1.10;;;22.60;41.30;;;;;;214580;1315;22571;-56
2021/12/24 18:52:59;;;;;;;2.10;1.20;;;22.70;41.20;;;;;;214212;1316;25384;-54
2021/12/24 18:58:04;;;;;;;1.80;0.90;;;22.70;41.40;;;;;;214327;1316;25491;-56
2021/12/24 19:03:08;;;;;;;1.90;1.10;;;22.80;41.00;;;;;;214502;1316;22656;-53
2021/12/24 19:08:13;;;;;;;1.60;0.90;;;22.80;41.00;;;;;;214542;1316;24299;-52
2021/12/24 19:13:17;;;;;;;2.10;1.10;;;22.80;41.00;;;;;;214542;1315;22669;-56
2021/12/24 19:18:21;;;;;;;1.60;1.00;;;22.80;41.20;;;;;;214471;1315;23497;-54
2021/12/24 19:23:26;;;;;;;1.50;0.80;;;22.80;41.00;;;;;;214566;1315;25576;-55
2021/12/24 19:28:31;;;;;;;1.50;0.80;;;22.80;41.00;;;;;;214778;1316;22908;-53
2021/12/24 19:33:35;;;;;;;1.40;0.80;;;22.80;41.30;;;;;;214311;1316;22561;-54
2021/12/24 19:38:40;;;;;;;1.70;0.90;;;22.80;41.00;;;;;;214422;1316;22601;-58
2021/12/24 19:43:44;;;;;;;1.60;0.80;;;22.80;41.10;;;;;;214429;1315;23981;-54
2021/12/24 19:48:48;;;;;;;1.80;0.80;;;22.80;41.50;;;;;;214397;1315;22644;-52
2021/12/24 19:53:51;;;;;;;1.10;0.70;;;22.80;41.20;;;;;;214439;1315;22559;-55
2021/12/24 19:58:55;;;;;;;1.20;0.70;;;22.80;41.10;;;;;;214536;1315;23043;-53
2021/12/24 20:03:59;;;;;;;1.50;0.80;;;22.90;41.00;;;;;;214551;1316;22555;-52
2021/12/24 20:09:04;;;;;;;1.10;0.80;;;22.90;41.00;;;;;;214325;1317;22557;-57
2021/12/24 20:14:14;;;;;;;1.30;0.90;;;22.90;41.00;;;;;;214442;1315;24322;-53
2021/12/24 20:19:19;;;;;;;1.40;0.80;;;22.90;41.00;;;;;;214477;1314;25558;-55
2021/12/24 20:24:23;;;;;;;1.30;0.80;;;22.90;41.00;;;;;;214900;1315;22558;-56
2021/12/24 20:29:27;;;;;;;1.30;0.90;;;22.90;41.10;;;;;;214781;1315;22564;-52
2021/12/24 20:34:32;;;;;;;1.30;0.80;;;22.90;41.00;;;;;;214762;1316;22593;-56
2021/12/24 20:39:36;;;;;;;1.00;0.70;;;22.90;41.00;;;;;;214576;1316;23423;-56
2021/12/24 20:44:41;;;;;;;1.30;0.80;;;22.80;41.00;;;;;;214629;1316;22579;-54
2021/12/24 20:49:46;;;;;;;1.20;0.70;;;22.90;41.00;;;;;;214561;1316;22621;-53
2021/12/24 20:54:52;;;;;;;1.40;0.80;;;22.80;41.00;;;;;;214445;1316;22643;-57
2021/12/24 20:59:57;;;;;;;1.00;0.70;;;22.90;40.90;;;;;;214399;1316;22590;-53
2021/12/24 21:05:02;;;;;;;1.90;1.00;;;22.90;40.90;;;;;;214631;1315;22671;-56
2021/12/24 21:10:12;;;;;;;1.00;0.70;;;22.90;40.80;;;;;;214228;1315;23246;-56
2021/12/24 21:15:16;;;;;;;1.50;0.90;;;22.90;40.70;;;;;;214421;1313;25024;-53
2021/12/24 21:20:20;;;;;;;1.10;0.80;;;23.00;40.80;;;;;;214382;1316;23304;-57
2021/12/24 21:25:25;;;;;;;1.30;0.80;;;22.90;40.70;;;;;;214369;1314;24364;-52
2021/12/24 21:30:32;;;;;;;0.90;0.60;;;22.90;40.60;;;;;;214448;1315;24257;-55
2021/12/24 21:35:40;;;;;;;0.90;0.70;;;22.90;40.70;;;;;;214601;1316;25389;-52
2021/12/24 21:40:44;;;;;;;1.40;0.70;;;22.90;41.10;;;;;;214526;1316;24404;-53
2021/12/24 21:45:50;;;;;;;1.60;0.80;;;22.90;40.70;;;;;;214772;1309;22575;-56
2021/12/24 21:51:02;;;;;;;1.60;0.80;;;22.90;40.60;;;;;;214397;1309;24235;-54
2021/12/24 21:56:08;;;;;;;5.10;1.10;;;22.80;40.60;;;;;;213916;1312;22592;-55
2021/12/24 22:01:12;;;;;;;7.30;1.50;;;22.90;40.90;;;;;;214194;1309;25383;-54
2021/12/24 22:11:34;;;;;;;2.80;1.30;;;22.50;40.00;;;;;;214096;1315;25551;-55
2021/12/24 22:16:39;;;;;;;3.50;1.40;;;22.50;39.80;;;;;;213709;1318;22704;-56
2021/12/24 22:21:58;;;;;;;6.20;1.20;;;22.60;39.40;;;;;;214283;1317;22756;-52
2021/12/24 22:27:01;;;;;;;2.90;0.90;;;22.70;39.70;;;;;;214071;1318;22605;-50
2021/12/24 22:32:07;;;;;;;13.60;1.70;;;22.80;39.50;;;;;;213698;1309;22916;-55
2021/12/24 22:37:14;;;;;;;6.80;1.10;;;23.00;40.30;;;;;;215292;1314;22596;-55
2021/12/24 22:42:18;;;;;;;8.20;1.20;;;23.00;40.60;;;;;;214219;1314;24429;-52
2021/12/24 22:47:26;;;;;;;6.80;1.20;;;23.10;41.40;;;;;;214209;1315;22584;-54
2021/12/24 22:52:46;;;;;;;9.90;1.90;;;23.10;41.60;;;;;;214509;1315;23110;-56
2021/12/24 22:57:54;;;;;;;2.50;0.90;;;23.00;41.60;;;;;;214269;1314;22606;-53
2021/12/24 23:02:58;;;;;;;6.20;1.10;;;23.00;41.90;;;;;;214673;1315;22579;-55
2021/12/24 23:08:02;;;;;;;7.80;1.00;;;22.80;42.00;;;;;;214444;1314;22632;-51
2021/12/24 23:13:08;;;;;;;2.30;0.80;;;22.90;42.30;;;;;;214308;1316;22637;-54
2021/12/24 23:18:18;;;;;;;2.60;1.00;;;23.10;42.10;;;;;;214333;1316;24280;-55
2021/12/24 23:23:25;;;;;;;1.70;0.90;;;23.10;42.30;;;;;;214355;1312;22579;-53
2021/12/24 23:28:30;;;;;;;1.30;0.60;;;23.00;42.40;;;;;;214385;1315;22574;-56
2021/12/24 23:33:33;;;;;;;1.40;0.80;;;23.10;42.70;;;;;;213987;1316;24263;-51
2021/12/24 23:38:37;;;;;;;2.60;0.80;;;23.10;42.80;;;;;;214097;1312;22587;-55
2021/12/24 23:43:51;;;;;;;2.10;0.90;;;23.10;42.70;;;;;;214190;1318;24330;-53
2021/12/24 23:48:54;;;;;;;1.70;0.60;;;23.20;42.80;;;;;;214042;1312;23157;-55
2021/12/24 23:54:06;;;;;;;2.50;0.70;;;23.20;42.90;;;;;;214348;1314;22801;-54
2021/12/24 23:59:11;;;;;;;2.10;1.00;;;23.20;43.00;;;;;;213661;1312;25390;-52
